createdAt,value
2018-04-29T00:00:45.858Z,96.90
2018-04-29T00:03:15.892Z,99.60
2018-04-29T00:05:45.197Z,99.70
2018-04-29T00:08:14.484Z,98.30
2018-04-29T00:10:43.771Z,98.30
2018-04-29T00:13:16.211Z,99.60
2018-04-29T00:15:47.227Z,99.40
2018-04-29T00:18:16.526Z,99.40
2018-04-29T00:20:45.834Z,99.90
2018-04-29T00:23:15.129Z,99.90
2018-04-29T00:25:44.433Z,99.90
2018-04-29T00:28:13.745Z,99.90
2018-04-29T00:30:43.026Z,99.90
2018-04-29T00:33:12.318Z,99.90
2018-04-29T00:35:41.638Z,99.90
2018-04-29T00:38:10.937Z,99.90
2018-04-29T00:40:40.233Z,99.90
2018-04-29T00:43:09.577Z,99.90
2018-04-29T00:45:38.862Z,99.90
2018-04-29T00:48:08.136Z,99.90
2018-04-29T00:50:37.439Z,99.90
2018-04-29T00:53:06.734Z,99.90
2018-04-29T00:55:36.046Z,99.90
2018-04-29T00:58:05.317Z,99.90
2018-04-29T01:00:34.619Z,99.90
2018-04-29T01:03:03.896Z,99.90
2018-04-29T01:05:33.240Z,99.90
2018-04-29T01:08:02.542Z,99.90
2018-04-29T01:10:31.838Z,99.90
2018-04-29T01:13:01.160Z,99.90
2018-04-29T01:15:30.436Z,99.90
2018-04-29T01:17:59.747Z,99.90
2018-04-29T01:20:29.034Z,99.90
2018-04-29T01:22:58.337Z,99.90
2018-04-29T01:25:27.649Z,99.90
2018-04-29T01:27:56.975Z,99.90
2018-04-29T01:30:26.275Z,99.90
2018-04-29T01:32:55.582Z,99.90
2018-04-29T01:35:24.844Z,99.90
2018-04-29T01:37:54.150Z,99.90
2018-04-29T01:40:23.462Z,99.90
2018-04-29T01:42:52.757Z,99.90
2018-04-29T01:45:22.068Z,99.90
2018-04-29T01:47:51.393Z,99.90
2018-04-29T01:50:20.680Z,99.90
2018-04-29T01:52:49.980Z,99.90
2018-04-29T01:55:19.286Z,99.90
2018-04-29T01:57:48.594Z,99.90
2018-04-29T02:00:17.910Z,99.90
2018-04-29T02:02:47.229Z,99.90
2018-04-29T02:05:16.500Z,99.90
2018-04-29T02:07:45.904Z,99.90
2018-04-29T02:10:15.235Z,99.90
2018-04-29T02:12:44.535Z,99.90
2018-04-29T02:15:13.796Z,99.90
2018-04-29T02:17:43.106Z,99.90
2018-04-29T02:20:21.812Z,99.90
2018-04-29T02:22:54.924Z,99.90
2018-04-29T02:25:33.993Z,99.90
2018-04-29T02:28:05.659Z,99.90
2018-04-29T02:30:39.636Z,99.90
2018-04-29T02:33:12.165Z,99.90
2018-04-29T02:35:46.854Z,99.90
2018-04-29T02:38:28.040Z,99.90
2018-04-29T02:41:05.006Z,99.90
2018-04-29T02:43:48.508Z,99.90
2018-04-29T02:46:25.821Z,99.90
2018-04-29T02:48:58.951Z,99.90
2018-04-29T02:51:38.057Z,99.90
2018-04-29T02:54:18.091Z,99.90
2018-04-29T02:56:54.280Z,99.90
2018-04-29T03:02:40.305Z,99.90
2018-04-29T03:05:13.659Z,99.90
2018-04-29T03:10:44.064Z,99.90
2018-04-29T03:13:26.011Z,99.90
2018-04-29T03:16:00.756Z,99.90
2018-04-29T03:18:40.276Z,99.90
2018-04-29T03:21:16.338Z,99.90
2018-04-29T03:23:58.114Z,99.90
2018-04-29T03:26:32.693Z,99.90
2018-04-29T03:29:08.202Z,99.90
2018-04-29T03:31:53.536Z,99.90
2018-04-29T03:34:30.212Z,99.90
2018-04-29T03:37:02.711Z,99.90
2018-04-29T03:39:39.643Z,99.90
2018-04-29T03:42:14.619Z,99.90
2018-04-29T03:44:45.380Z,99.90
2018-04-29T03:47:21.816Z,99.90
2018-04-29T03:49:55.115Z,99.90
2018-04-29T03:52:30.346Z,99.90
2018-04-29T03:55:03.876Z,99.90
2018-04-29T03:57:51.995Z,99.90
2018-04-29T04:00:49.830Z,99.90
2018-04-29T04:17:21.419Z,99.90
2018-04-29T04:19:52.488Z,99.90
2018-04-29T04:22:21.823Z,99.90
2018-04-29T04:24:53.743Z,99.90
2018-04-29T04:27:24.248Z,99.90
2018-04-29T04:29:55.725Z,99.90
2018-04-29T04:32:27.063Z,99.90
2018-04-29T04:34:59.088Z,99.90
2018-04-29T04:37:30.098Z,99.90
2018-04-29T04:39:59.665Z,99.90
2018-04-29T04:42:30.785Z,99.90
2018-04-29T04:45:04.376Z,99.90
2018-04-29T04:47:35.032Z,99.90
2018-04-29T04:50:07.990Z,99.90
2018-04-29T04:52:37.453Z,99.90
2018-04-29T04:55:08.976Z,99.90
2018-04-29T04:57:41.140Z,99.90
2018-04-29T05:00:12.025Z,99.90
2018-04-29T05:02:41.707Z,99.90
2018-04-29T05:05:12.802Z,99.90
2018-04-29T05:07:44.874Z,99.90
2018-04-29T05:10:17.287Z,99.90
2018-04-29T05:12:47.465Z,99.90
2018-04-29T05:15:19.988Z,99.90
2018-04-29T05:17:52.106Z,99.90
2018-04-29T05:20:37.968Z,99.90
2018-04-29T05:35:20.522Z,99.90
2018-04-29T05:37:58.024Z,99.90
2018-04-29T05:40:41.784Z,99.90
2018-04-29T05:43:13.976Z,99.90
2018-04-29T05:45:43.285Z,99.90
2018-04-29T05:48:13.067Z,99.90
2018-04-29T05:50:42.341Z,99.90
2018-04-29T05:53:13.923Z,99.80
2018-04-29T05:55:43.948Z,99.80
2018-04-29T05:58:16.439Z,98.30
2018-04-29T06:00:45.999Z,97.60
2018-04-29T06:03:15.448Z,96.70
2018-04-29T06:05:44.815Z,96.80
2018-04-29T06:08:14.951Z,97.50
2018-04-29T06:10:44.601Z,95.60
2018-04-29T06:13:15.590Z,95.40
2018-04-29T06:15:45.138Z,95.40
2018-04-29T06:18:14.209Z,94.20
2018-04-29T06:20:43.107Z,93.50
2018-04-29T06:23:12.404Z,93.60
2018-04-29T06:25:42.773Z,93.80
2018-04-29T06:28:17.298Z,96.50
2018-04-29T06:30:48.265Z,93.20
2018-04-29T06:33:17.670Z,94.20
2018-04-29T06:35:53.699Z,95.60
2018-04-29T06:38:23.742Z,93.30
2018-04-29T06:40:53.070Z,93.30
2018-04-29T06:43:22.365Z,92.50
2018-04-29T06:45:51.670Z,91.30
2018-04-29T06:48:20.953Z,91.40
2018-04-29T06:50:50.301Z,90.40
2018-04-29T06:53:19.622Z,88.70
2018-04-29T07:07:53.433Z,90.30
2018-04-29T07:10:47.278Z,90.80
2018-04-29T07:38:27.018Z,89.20
2018-04-29T07:40:59.952Z,90.90
2018-04-29T07:43:29.700Z,88.70
2018-04-29T07:46:11.382Z,87.00
2018-04-29T07:48:55.268Z,87.90
2018-04-29T07:51:41.769Z,86.10
2018-04-29T07:54:29.653Z,90.60
2018-04-29T08:00:19.143Z,90.40
2018-04-29T08:03:03.487Z,89.40
2018-04-29T08:05:41.828Z,88.60
2018-04-29T08:08:23.832Z,90.10
2018-04-29T08:10:59.422Z,90.30
2018-04-29T08:13:29.682Z,90.70
2018-04-29T08:16:07.861Z,91.10
2018-04-29T08:18:44.465Z,88.30
2018-04-29T08:21:23.622Z,90.20
2018-04-29T08:24:32.253Z,88.60
2018-04-29T08:27:09.079Z,86.80
2018-04-29T08:29:43.837Z,88.30
2018-04-29T08:32:33.514Z,88.30
2018-04-29T08:35:19.727Z,86.60
2018-04-29T08:37:58.055Z,86.20
2018-04-29T08:43:21.403Z,86.80
2018-04-29T08:48:54.442Z,88.20
2018-04-29T08:54:40.016Z,86.90
2018-04-29T08:57:22.513Z,87.00
2018-04-29T09:00:13.856Z,87.20
2018-04-29T09:02:55.373Z,86.70
2018-04-29T09:05:31.581Z,84.10
2018-04-29T09:08:04.083Z,84.50
2018-04-29T09:10:42.644Z,84.50
2018-04-29T09:13:21.733Z,83.50
2018-04-29T09:15:55.408Z,83.60
2018-04-29T09:18:37.747Z,82.60
2018-04-29T09:30:06.540Z,82.20
2018-04-29T09:32:53.756Z,82.20
2018-04-29T09:35:23.058Z,82.30
2018-04-29T09:37:53.474Z,80.80
2018-04-29T09:40:22.782Z,81.00
2018-04-29T09:42:53.419Z,82.60
2018-04-29T09:45:37.739Z,81.80
2018-04-29T09:48:11.740Z,81.50
2018-04-29T09:50:50.332Z,77.70
2018-04-29T09:53:25.889Z,79.40
2018-04-29T09:56:02.622Z,79.50
2018-04-29T09:58:33.967Z,79.10
2018-04-29T10:01:03.311Z,78.90
2018-04-29T10:03:33.545Z,77.80
2018-04-29T10:06:05.163Z,78.30
2018-04-29T10:08:37.332Z,78.30
2018-04-29T10:11:07.736Z,77.50
2018-04-29T10:13:40.754Z,77.30
2018-04-29T10:22:23.788Z,76.10
2018-04-29T10:24:55.669Z,76.00
2018-04-29T10:27:26.956Z,75.20
2018-04-29T10:30:03.951Z,74.60
2018-04-29T10:32:37.103Z,73.90
2018-04-29T10:35:10.276Z,72.80
2018-04-29T10:37:44.952Z,72.90
2018-04-29T10:40:21.009Z,72.40
2018-04-29T10:43:03.453Z,73.60
2018-04-29T10:45:35.332Z,73.60
2018-04-29T10:51:05.031Z,72.20
2018-04-29T10:53:36.543Z,71.70
2018-04-29T10:56:06.844Z,70.60
2018-04-29T10:58:37.005Z,69.20
2018-04-29T11:01:08.170Z,68.80
2018-04-29T11:03:39.289Z,68.70
2018-04-29T11:06:10.235Z,67.60
2018-04-29T11:08:40.375Z,69.10
2018-04-29T11:11:12.933Z,68.40
2018-04-29T11:13:46.879Z,68.10
2018-04-29T11:16:19.250Z,67.40
2018-04-29T11:18:48.773Z,70.50
2018-04-29T11:21:18.252Z,71.40
2018-04-29T11:23:47.638Z,72.90
2018-04-29T11:26:16.913Z,72.70
2018-04-29T11:28:46.977Z,69.50
2018-04-29T11:31:16.265Z,69.40
2018-04-29T11:33:45.618Z,70.20
2018-04-29T11:36:14.868Z,67.70
2018-04-29T11:38:44.166Z,68.10
2018-04-29T11:41:13.493Z,65.50
2018-04-29T11:43:49.446Z,66.60
2018-04-29T11:46:18.726Z,68.30
2018-04-29T11:48:48.281Z,67.20
2018-04-29T11:51:17.609Z,67.40
2018-04-29T11:53:47.674Z,67.40
2018-04-29T11:56:17.088Z,67.40
2018-04-29T11:58:48.182Z,64.40
2018-04-29T12:01:17.458Z,64.60
2018-04-29T12:03:47.683Z,67.00
2018-04-29T12:06:16.981Z,66.90
2018-04-29T12:08:46.282Z,64.30
2018-04-29T12:11:16.386Z,62.90
2018-04-29T12:13:45.689Z,62.80
2018-04-29T12:16:16.661Z,62.00
2018-04-29T12:18:45.945Z,62.00
2018-04-29T12:21:16.014Z,61.20
2018-04-29T12:23:45.289Z,61.20
2018-04-29T12:26:14.659Z,62.40
2018-04-29T12:28:44.430Z,60.90
2018-04-29T12:31:13.957Z,59.90
2018-04-29T12:33:43.435Z,59.80
2018-04-29T12:36:12.740Z,59.00
2018-04-29T12:38:42.020Z,57.90
2018-04-29T12:41:11.379Z,58.50
2018-04-29T12:43:42.181Z,59.40
2018-04-29T12:46:11.855Z,59.40
2018-04-29T12:48:41.487Z,59.90
2018-04-29T12:51:10.989Z,58.30
2018-04-29T12:53:40.288Z,59.20
2018-04-29T12:56:09.570Z,58.30
2018-04-29T12:58:38.968Z,57.10
2018-04-29T13:01:08.276Z,57.50
2018-04-29T13:03:38.545Z,58.90
2018-04-29T13:06:09.578Z,59.60
2018-04-29T13:08:38.888Z,61.90
2018-04-29T13:11:08.185Z,57.30
2018-04-29T13:13:37.497Z,57.80
2018-04-29T13:16:06.959Z,57.30
2018-04-29T13:18:36.822Z,56.30
2018-04-29T13:21:06.126Z,56.20
2018-04-29T13:23:35.470Z,56.50
2018-04-29T13:26:05.666Z,56.30
2018-04-29T13:28:36.143Z,56.10
2018-04-29T13:31:06.259Z,56.80
2018-04-29T13:33:36.413Z,55.90
2018-04-29T13:36:06.381Z,56.50
2018-04-29T13:38:37.246Z,56.20
2018-04-29T13:41:07.702Z,55.50
2018-04-29T13:43:38.768Z,55.50
2018-04-29T13:46:08.186Z,55.50
2018-04-29T13:48:37.699Z,55.40
2018-04-29T13:51:07.299Z,55.10
2018-04-29T13:53:36.845Z,54.90
2018-04-29T13:56:08.814Z,55.80
2018-04-29T13:58:40.173Z,53.90
2018-04-29T14:01:11.239Z,53.90
2018-04-29T14:03:48.096Z,53.20
2018-04-29T14:06:19.923Z,53.20
2018-04-29T14:08:51.116Z,52.60
2018-04-29T14:11:21.288Z,52.60
2018-04-29T14:13:52.415Z,52.60
2018-04-29T14:16:22.494Z,52.60
2018-04-29T14:18:52.576Z,52.50
2018-04-29T14:21:24.200Z,52.50
2018-04-29T14:23:55.254Z,51.70
2018-04-29T14:26:25.450Z,51.30
2018-04-29T14:28:54.750Z,52.50
2018-04-29T14:31:24.109Z,50.40
2018-04-29T14:33:53.448Z,49.70
2018-04-29T14:36:23.708Z,50.30
2018-04-29T14:38:53.109Z,51.40
2018-04-29T14:41:22.529Z,50.90
2018-04-29T14:43:51.893Z,51.00
2018-04-29T14:46:21.299Z,51.60
2018-04-29T14:48:51.423Z,50.90
2018-04-29T14:51:24.516Z,51.80
2018-04-29T14:53:55.351Z,52.30
2018-04-29T14:56:27.177Z,53.30
2018-04-29T14:58:56.634Z,53.20
2018-04-29T15:01:27.572Z,51.50
2018-04-29T15:03:58.096Z,51.40
2018-04-29T15:06:29.437Z,52.50
2018-04-29T15:08:59.857Z,53.70
2018-04-29T15:11:30.580Z,53.60
2018-04-29T15:13:59.894Z,52.40
2018-04-29T15:16:30.317Z,53.20
2018-04-29T15:19:01.439Z,52.60
2018-04-29T15:21:30.855Z,52.80
2018-04-29T15:24:00.766Z,52.40
2018-04-29T15:26:32.256Z,51.70
2018-04-29T15:29:01.541Z,51.60
2018-04-29T15:31:31.446Z,51.90
2018-04-29T15:34:01.651Z,52.50
2018-04-29T15:36:30.969Z,52.50
2018-04-29T15:39:00.935Z,53.10
2018-04-29T15:41:30.243Z,53.40
2018-04-29T15:44:00.083Z,53.50
2018-04-29T15:46:29.435Z,53.60
2018-04-29T15:48:58.766Z,54.20
2018-04-29T15:51:28.114Z,54.40
2018-04-29T15:53:57.444Z,54.00
2018-04-29T15:56:27.506Z,54.80
2018-04-29T15:58:56.848Z,54.90
2018-04-29T16:01:28.090Z,55.10
2018-04-29T16:03:57.394Z,54.90
2018-04-29T16:06:26.682Z,53.50
2018-04-29T16:08:55.996Z,54.20
2018-04-29T16:11:25.289Z,54.00
2018-04-29T16:13:54.610Z,54.90
2018-04-29T16:16:23.916Z,54.00
2018-04-29T16:18:53.351Z,54.50
2018-04-29T16:21:22.698Z,54.40
2018-04-29T16:23:52.035Z,54.20
2018-04-29T16:26:21.323Z,53.60
2018-04-29T16:28:50.601Z,54.00
2018-04-29T16:31:19.920Z,54.10
2018-04-29T16:33:49.209Z,54.40
2018-04-29T16:36:18.498Z,54.10
2018-04-29T16:38:47.859Z,54.10
2018-04-29T16:41:17.225Z,53.40
2018-04-29T16:43:46.532Z,54.10
2018-04-29T16:46:16.576Z,55.10
2018-04-29T16:48:45.887Z,55.10
2018-04-29T16:51:15.177Z,54.30
2018-04-29T16:53:44.477Z,54.10
2018-04-29T16:56:13.778Z,54.20
2018-04-29T16:58:43.113Z,53.90
2018-04-29T17:01:12.474Z,54.40
2018-04-29T17:03:41.764Z,54.40
2018-04-29T17:06:11.066Z,54.60
2018-04-29T17:08:41.127Z,54.30
2018-04-29T17:11:10.431Z,54.20
2018-04-29T17:13:39.738Z,54.50
2018-04-29T17:16:10.065Z,54.30
2018-04-29T17:18:40.887Z,53.80
2018-04-29T17:21:10.382Z,53.70
2018-04-29T17:23:39.669Z,53.80
2018-04-29T17:26:09.195Z,53.00
2018-04-29T17:28:38.467Z,53.50
2018-04-29T17:31:07.770Z,53.70
2018-04-29T17:33:37.071Z,52.20
2018-04-29T17:36:06.364Z,52.40
2018-04-29T17:38:36.433Z,52.10
2018-04-29T17:41:05.713Z,52.10
2018-04-29T17:43:35.017Z,51.90
2018-04-29T17:46:04.318Z,51.40
2018-04-29T17:48:33.612Z,51.60
2018-04-29T17:51:02.910Z,52.20
2018-04-29T17:53:32.219Z,52.10
2018-04-29T17:56:01.544Z,52.10
2018-04-29T17:58:30.821Z,52.30
2018-04-29T18:01:00.146Z,52.00
2018-04-29T18:03:29.488Z,52.20
2018-04-29T18:05:58.777Z,52.80
2018-04-29T18:08:28.103Z,52.80
2018-04-29T18:10:57.453Z,53.00
2018-04-29T18:13:26.762Z,53.00
2018-04-29T18:15:56.075Z,53.20
2018-04-29T18:18:25.365Z,52.60
2018-04-29T18:20:54.654Z,53.30
2018-04-29T18:23:23.942Z,53.20
2018-04-29T18:25:53.232Z,53.40
2018-04-29T18:28:22.519Z,53.30
2018-04-29T18:30:51.818Z,53.70
2018-04-29T18:33:21.115Z,54.00
2018-04-29T18:35:50.412Z,54.40
2018-04-29T18:38:19.689Z,54.00
2018-04-29T18:40:49.766Z,53.90
2018-04-29T18:43:19.066Z,53.80
2018-04-29T18:45:48.369Z,54.20
2018-04-29T18:48:17.902Z,54.70
2018-04-29T18:50:47.243Z,54.80
2018-04-29T18:53:16.512Z,55.10
2018-04-29T18:55:46.574Z,55.20
2018-04-29T18:58:15.872Z,55.20
2018-04-29T19:00:45.752Z,55.50
2018-04-29T19:03:15.813Z,57.40
2018-04-29T19:05:47.922Z,57.40
2018-04-29T19:08:17.236Z,58.10
2018-04-29T19:10:46.519Z,59.70
2018-04-29T19:13:15.835Z,60.60
2018-04-29T19:15:45.943Z,57.40
2018-04-29T19:18:15.218Z,57.30
2018-04-29T19:20:44.884Z,59.10
2018-04-29T19:23:14.248Z,58.00
2018-04-29T19:25:43.585Z,58.60
2018-04-29T19:28:14.486Z,59.20
2018-04-29T19:30:43.824Z,59.20
2018-04-29T19:33:13.116Z,59.70
2018-04-29T19:35:42.415Z,60.60
2018-04-29T19:38:12.467Z,60.30
2018-04-29T19:40:41.745Z,60.20
2018-04-29T19:43:11.040Z,60.10
2018-04-29T19:45:40.356Z,60.90
2018-04-29T19:48:09.655Z,60.70
2018-04-29T19:50:38.968Z,63.10
2018-04-29T19:53:08.245Z,63.00
2018-04-29T19:55:37.543Z,64.90
2018-04-29T19:58:07.619Z,65.80
2018-04-29T20:00:36.954Z,65.50
2018-04-29T20:03:06.250Z,65.80
2018-04-29T20:05:36.314Z,63.80
2018-04-29T20:08:05.596Z,63.80
2018-04-29T20:10:34.913Z,62.90
2018-04-29T20:13:04.921Z,62.80
2018-04-29T20:15:34.214Z,63.00
2018-04-29T20:18:03.532Z,62.80
2018-04-29T20:20:32.835Z,62.20
2018-04-29T20:23:02.121Z,62.50
2018-04-29T20:25:31.457Z,62.70
2018-04-29T20:28:00.771Z,62.40
2018-04-29T20:30:30.068Z,62.90
2018-04-29T20:32:59.353Z,62.40
2018-04-29T20:35:28.645Z,62.20
2018-04-29T20:37:57.947Z,62.70
2018-04-29T20:40:27.249Z,62.30
2018-04-29T20:42:56.536Z,62.20
2018-04-29T20:45:25.851Z,63.00
2018-04-29T20:47:55.113Z,63.40
2018-04-29T20:50:24.414Z,64.20
2018-04-29T20:52:53.697Z,63.30
2018-04-29T20:55:23.847Z,63.90
2018-04-29T20:57:53.041Z,63.70
2018-04-29T21:00:22.361Z,63.90
2018-04-29T21:02:51.684Z,64.60
2018-04-29T21:05:21.925Z,64.70
2018-04-29T21:07:51.968Z,64.80
2018-04-29T21:10:21.294Z,64.80
2018-04-29T21:12:50.575Z,64.80
2018-04-29T21:15:19.858Z,65.00
2018-04-29T21:17:49.926Z,65.60
2018-04-29T21:20:19.191Z,65.60
2018-04-29T21:22:49.408Z,65.80
2018-04-29T21:25:18.706Z,66.10
2018-04-29T21:27:48.007Z,66.20
2018-04-29T21:30:17.285Z,66.30
2018-04-29T21:32:47.351Z,66.70
2018-04-29T21:35:16.658Z,66.70
2018-04-29T21:37:45.956Z,66.80
2018-04-29T21:40:15.266Z,66.70
2018-04-29T21:42:44.559Z,66.90
2018-04-29T21:45:13.885Z,67.40
2018-04-29T21:47:43.170Z,67.70
2018-04-29T21:50:12.477Z,67.90
2018-04-29T21:52:41.754Z,67.90
2018-04-29T21:55:11.853Z,67.90
2018-04-29T21:57:41.148Z,68.60
2018-04-29T22:00:10.449Z,68.20
2018-04-29T22:02:39.305Z,68.40
2018-04-29T22:05:08.499Z,68.70
2018-04-29T22:07:37.802Z,69.30
2018-04-29T22:10:07.084Z,69.20
2018-04-29T22:12:36.379Z,69.10
2018-04-29T22:15:05.663Z,69.60
2018-04-29T22:17:34.951Z,70.90
2018-04-29T22:20:04.244Z,70.30
2018-04-29T22:22:33.550Z,70.40
2018-04-29T22:25:02.833Z,70.80
2018-04-29T22:27:32.890Z,72.80
2018-04-29T22:30:02.175Z,72.80
2018-04-29T22:32:31.545Z,75.40
2018-04-29T22:35:02.008Z,74.20
2018-04-29T22:37:31.319Z,74.10
2018-04-29T22:40:00.653Z,75.00
2018-04-29T22:42:29.938Z,74.30
2018-04-29T22:44:59.233Z,75.30
2018-04-29T22:47:28.522Z,78.20
2018-04-29T22:49:57.821Z,79.00
2018-04-29T22:52:26.670Z,78.20
2018-04-29T22:54:55.864Z,77.70
2018-04-29T22:57:26.101Z,78.60
2018-04-29T22:59:55.408Z,79.20
2018-04-29T23:02:24.702Z,81.00
2018-04-29T23:04:53.997Z,80.70
2018-04-29T23:07:24.079Z,80.40
2018-04-29T23:09:53.358Z,80.40
2018-04-29T23:12:22.641Z,80.70
2018-04-29T23:14:51.942Z,81.60
2018-04-29T23:17:21.231Z,81.80
2018-04-29T23:19:50.551Z,82.70
2018-04-29T23:22:19.833Z,83.80
2018-04-29T23:24:49.132Z,78.50
2018-04-29T23:27:18.429Z,83.40
2018-04-29T23:29:47.730Z,85.30
2018-04-29T23:32:17.013Z,87.00
2018-04-29T23:34:47.079Z,90.20
2018-04-29T23:37:16.383Z,90.10
2018-04-29T23:39:46.449Z,90.60
2018-04-29T23:42:16.504Z,90.70
2018-04-29T23:44:45.797Z,90.70
2018-04-29T23:47:15.087Z,90.80
2018-04-29T23:49:44.390Z,90.90
2018-04-29T23:52:13.665Z,91.20
2018-04-29T23:54:43.710Z,91.20
2018-04-29T23:57:13.016Z,91.20
2018-04-29T23:59:42.295Z,91.10
